createdAt,value
2023-12-12T00:01:29.766Z,11.97
2023-12-12T00:04:02.841Z,12.28
2023-12-12T00:06:34.812Z,12.05
2023-12-12T00:09:07.269Z,12.19
2023-12-12T00:11:39.183Z,12.27
2023-12-12T00:14:11.772Z,12.05
2023-12-12T00:16:44.011Z,12.12
2023-12-12T00:19:16.059Z,12.16
2023-12-12T00:21:49.800Z,11.97
2023-12-12T00:24:21.786Z,12.02
2023-12-12T00:26:54.805Z,12.14
2023-12-12T00:29:26.790Z,11.94
2023-12-12T00:31:59.268Z,12.03
2023-12-12T00:34:31.537Z,12.00
2023-12-12T00:37:04.524Z,11.96
2023-12-12T00:39:42.901Z,11.99
2023-12-12T00:42:14.894Z,11.79
2023-12-12T00:44:47.729Z,12.20
2023-12-12T00:47:19.663Z,12.02
2023-12-12T00:49:52.752Z,12.16
2023-12-12T00:52:25.236Z,12.11
2023-12-12T00:55:00.773Z,12.06
2023-12-12T00:57:33.157Z,12.09
2023-12-12T01:00:06.773Z,12.05
2023-12-12T01:02:38.714Z,12.24
2023-12-12T01:05:11.576Z,12.30
2023-12-12T01:07:43.997Z,12.46
2023-12-12T01:10:16.713Z,11.67
2023-12-12T01:12:49.436Z,11.73
2023-12-12T01:15:21.416Z,11.26
2023-12-12T01:17:54.053Z,11.40
2023-12-12T01:20:26.044Z,11.50
2023-12-12T01:22:58.561Z,11.63
2023-12-12T01:25:31.270Z,11.18
2023-12-12T01:28:04.560Z,10.96
2023-12-12T01:30:39.434Z,11.01
2023-12-12T01:33:12.848Z,10.78
2023-12-12T01:35:45.391Z,10.62
2023-12-12T01:38:17.318Z,10.50
2023-12-12T01:40:50.238Z,10.47
2023-12-12T01:43:30.359Z,10.40
2023-12-12T01:46:16.421Z,10.27
2023-12-12T01:48:49.709Z,10.31
2023-12-12T01:51:22.955Z,10.43
2023-12-12T01:53:55.400Z,10.37
2023-12-12T01:56:32.081Z,10.24
2023-12-12T01:59:05.992Z,10.14
2023-12-12T02:01:39.780Z,10.16
2023-12-12T02:04:12.579Z,10.18
2023-12-12T02:06:48.403Z,9.92
2023-12-12T02:09:21.059Z,9.95
2023-12-12T02:11:53.856Z,10.27
2023-12-12T02:14:26.104Z,10.24
2023-12-12T02:16:58.508Z,10.41
2023-12-12T02:19:31.087Z,10.23
2023-12-12T02:22:03.677Z,10.39
2023-12-12T02:24:36.008Z,10.53
2023-12-12T02:27:09.012Z,10.36
2023-12-12T02:29:41.095Z,10.16
2023-12-12T02:32:13.658Z,10.36
2023-12-12T02:34:47.438Z,10.43
2023-12-12T02:37:19.900Z,10.31
2023-12-12T02:39:52.220Z,10.16
2023-12-12T02:42:24.138Z,10.38
2023-12-12T02:44:59.700Z,10.03
2023-12-12T02:47:31.907Z,10.00
2023-12-12T02:50:05.171Z,9.96
2023-12-12T02:52:37.536Z,9.80
2023-12-12T02:55:09.809Z,10.09
2023-12-12T02:57:42.382Z,10.15
2023-12-12T03:00:14.909Z,10.11
2023-12-12T03:02:47.824Z,10.32
2023-12-12T03:05:19.945Z,10.16
2023-12-12T03:07:52.510Z,9.99
2023-12-12T03:10:24.737Z,9.95
2023-12-12T03:12:56.749Z,10.06
2023-12-12T03:15:29.167Z,10.06
2023-12-12T03:18:01.595Z,10.24
2023-12-12T03:20:34.542Z,10.08
2023-12-12T03:23:06.905Z,10.13
2023-12-12T03:25:39.368Z,9.83
2023-12-12T03:28:13.625Z,9.95
2023-12-12T03:30:45.612Z,10.04
2023-12-12T03:33:18.231Z,10.13
2023-12-12T03:35:50.341Z,10.05
2023-12-12T03:38:25.858Z,10.03
2023-12-12T03:40:58.721Z,10.11
2023-12-12T03:43:30.709Z,10.42
2023-12-12T03:46:03.200Z,10.33
2023-12-12T03:48:35.705Z,10.44
2023-12-12T03:51:13.617Z,10.76
2023-12-12T03:53:45.896Z,10.67
2023-12-12T03:56:18.190Z,10.54
2023-12-12T03:58:50.197Z,10.33
2023-12-12T04:01:23.651Z,10.40
2023-12-12T04:03:56.607Z,10.04
2023-12-12T04:06:29.740Z,10.44
2023-12-12T04:09:01.661Z,10.27
2023-12-12T04:11:34.311Z,10.48
2023-12-12T04:14:06.301Z,10.44
2023-12-12T04:16:40.375Z,10.32
2023-12-12T04:19:12.896Z,10.58
2023-12-12T04:21:45.600Z,10.50
2023-12-12T04:24:17.554Z,10.46
2023-12-12T04:26:50.149Z,10.56
2023-12-12T04:29:22.095Z,10.58
2023-12-12T04:31:55.172Z,10.84
2023-12-12T04:34:27.114Z,10.91
2023-12-12T04:37:00.995Z,10.96
2023-12-12T04:39:32.928Z,10.87
2023-12-12T04:42:06.078Z,10.90
2023-12-12T04:44:38.144Z,10.67
2023-12-12T04:47:11.080Z,10.67
2023-12-12T04:49:43.549Z,10.84
2023-12-12T04:52:17.356Z,10.67
2023-12-12T04:54:49.372Z,10.51
2023-12-12T04:57:22.009Z,10.50
2023-12-12T04:59:53.927Z,10.99
2023-12-12T05:02:27.086Z,10.82
2023-12-12T05:04:59.853Z,10.66
2023-12-12T05:07:32.811Z,10.66
2023-12-12T05:10:06.788Z,10.65
2023-12-12T05:12:39.939Z,10.73
2023-12-12T05:15:11.924Z,10.55
2023-12-12T05:17:45.304Z,10.70
2023-12-12T05:20:17.556Z,10.68
2023-12-12T05:22:50.296Z,10.66
2023-12-12T05:25:26.118Z,10.87
2023-12-12T05:27:59.117Z,10.80
2023-12-12T05:30:31.116Z,10.96
2023-12-12T05:33:04.014Z,10.77
2023-12-12T05:35:36.226Z,10.57
2023-12-12T05:38:08.844Z,10.49
2023-12-12T05:40:40.978Z,10.45
2023-12-12T05:43:14.065Z,10.42
2023-12-12T05:45:46.613Z,10.63
2023-12-12T05:48:19.689Z,10.71
2023-12-12T05:50:51.715Z,10.80
2023-12-12T05:53:24.601Z,11.02
2023-12-12T05:55:57.526Z,11.06
2023-12-12T05:58:30.159Z,11.07
2023-12-12T06:01:03.964Z,10.82
2023-12-12T06:03:38.623Z,10.97
2023-12-12T06:06:11.535Z,11.03
2023-12-12T06:08:44.296Z,10.80
2023-12-12T06:11:17.292Z,10.93
2023-12-12T06:13:49.925Z,11.02
2023-12-12T06:16:22.042Z,10.77
2023-12-12T06:18:55.024Z,10.80
2023-12-12T06:21:27.463Z,10.87
2023-12-12T06:24:03.745Z,10.93
2023-12-12T06:26:35.922Z,11.00
2023-12-12T06:29:10.480Z,10.62
2023-12-12T06:31:42.764Z,10.90
2023-12-12T06:34:15.678Z,10.90
2023-12-12T06:36:47.777Z,10.71
2023-12-12T06:39:20.736Z,11.02
2023-12-12T06:41:52.708Z,11.00
2023-12-12T06:44:25.365Z,10.91
2023-12-12T06:46:57.855Z,11.28
2023-12-12T06:49:30.624Z,10.84
2023-12-12T06:52:04.616Z,11.20
2023-12-12T06:54:37.428Z,11.15
2023-12-12T06:57:09.511Z,11.02
2023-12-12T06:59:42.147Z,11.01
2023-12-12T07:02:14.215Z,11.16
2023-12-12T07:04:47.020Z,11.21
2023-12-12T07:07:19.014Z,11.24
2023-12-12T07:09:59.395Z,11.32
2023-12-12T07:12:33.496Z,11.38
2023-12-12T07:15:06.672Z,10.93
2023-12-12T07:17:39.526Z,11.10
2023-12-12T07:20:13.543Z,10.74
2023-12-12T07:22:45.686Z,10.94
2023-12-12T07:25:18.475Z,10.94
2023-12-12T07:27:51.602Z,10.94
2023-12-12T07:30:24.254Z,10.94
2023-12-12T07:32:57.351Z,10.81
2023-12-12T07:35:30.457Z,10.78
2023-12-12T07:38:02.476Z,10.48
2023-12-12T07:40:35.153Z,10.67
2023-12-12T07:43:07.207Z,10.70
2023-12-12T07:45:39.961Z,10.56
2023-12-12T07:48:12.028Z,10.40
2023-12-12T07:50:44.778Z,10.56
2023-12-12T07:53:17.173Z,10.75
2023-12-12T07:55:50.147Z,10.82
2023-12-12T07:58:22.256Z,10.98
2023-12-12T08:00:55.180Z,10.81
2023-12-12T08:03:27.574Z,10.88
2023-12-12T08:06:02.219Z,11.03
2023-12-12T08:08:34.341Z,10.97
2023-12-12T08:11:14.689Z,10.93
2023-12-12T08:13:47.164Z,11.13
2023-12-12T08:16:20.295Z,11.15
2023-12-12T08:18:52.528Z,11.02
2023-12-12T08:21:25.602Z,11.02
2023-12-12T08:24:08.817Z,10.83
2023-12-12T08:26:50.216Z,10.56
2023-12-12T08:29:23.657Z,10.84
2023-12-12T08:31:58.686Z,10.68
2023-12-12T08:34:34.677Z,10.80
2023-12-12T08:37:07.030Z,10.58
2023-12-12T08:39:40.082Z,10.81
2023-12-12T08:42:15.259Z,10.64
2023-12-12T08:44:47.229Z,10.67
2023-12-12T08:47:19.921Z,10.73
2023-12-12T08:49:52.386Z,10.86
2023-12-12T08:52:25.466Z,11.30
2023-12-12T08:54:57.825Z,11.44
2023-12-12T08:57:31.383Z,12.58
2023-12-12T09:00:05.041Z,12.31
2023-12-12T09:02:38.663Z,13.13
2023-12-12T09:05:11.122Z,13.28
2023-12-12T09:07:44.295Z,13.34
2023-12-12T09:10:16.334Z,13.07
2023-12-12T09:12:48.997Z,13.29
2023-12-12T09:15:21.039Z,13.37
2023-12-12T09:18:05.890Z,13.44
2023-12-12T09:20:46.040Z,13.46
2023-12-12T09:23:18.839Z,13.56
2023-12-12T09:25:51.018Z,13.62
2023-12-12T09:28:25.204Z,13.62
2023-12-12T09:30:57.472Z,13.49
2023-12-12T09:33:30.385Z,13.54
2023-12-12T09:36:02.892Z,13.73
2023-12-12T09:38:35.289Z,13.56
2023-12-12T09:41:10.399Z,13.47
2023-12-12T09:43:42.887Z,13.47
2023-12-12T09:46:16.485Z,13.71
2023-12-12T09:48:50.796Z,13.44
2023-12-12T09:51:25.520Z,13.66
2023-12-12T09:53:58.233Z,13.56
2023-12-12T09:56:30.710Z,13.57
2023-12-12T09:59:03.441Z,13.88
2023-12-12T10:01:36.687Z,13.91
2023-12-12T10:04:11.584Z,13.74
2023-12-12T10:06:44.762Z,14.08
2023-12-12T10:09:17.680Z,13.85
2023-12-12T10:11:49.757Z,13.83
2023-12-12T10:14:40.491Z,14.01
2023-12-12T10:17:12.907Z,13.83
2023-12-12T10:19:46.080Z,14.06
2023-12-12T10:22:18.806Z,13.83
2023-12-12T10:24:54.450Z,13.73
2023-12-12T10:27:26.393Z,14.05
2023-12-12T10:30:07.633Z,13.92
2023-12-12T10:32:40.128Z,14.16
2023-12-12T10:35:13.022Z,14.05
2023-12-12T10:37:45.134Z,13.86
2023-12-12T10:40:24.124Z,13.94
2023-12-12T10:42:56.833Z,13.96
2023-12-12T10:45:31.503Z,13.97
2023-12-12T10:48:06.478Z,14.06
2023-12-12T10:50:40.281Z,14.04
2023-12-12T10:53:13.243Z,13.94
2023-12-12T10:55:46.232Z,13.82
2023-12-12T10:58:19.010Z,14.04
2023-12-12T11:00:52.638Z,14.02
2023-12-12T11:03:25.010Z,14.28
2023-12-12T11:05:59.551Z,14.42
2023-12-12T11:08:32.025Z,14.30
2023-12-12T11:11:13.597Z,14.56
2023-12-12T11:13:46.254Z,14.67
2023-12-12T11:16:19.590Z,14.55
2023-12-12T11:18:54.111Z,14.74
2023-12-12T11:21:47.053Z,14.79
2023-12-12T11:24:21.110Z,15.01
2023-12-12T11:26:55.326Z,15.08
2023-12-12T11:29:27.908Z,15.16
2023-12-12T11:32:05.494Z,15.07
2023-12-12T11:34:39.815Z,15.12
2023-12-12T11:37:12.517Z,15.20
2023-12-12T11:39:50.789Z,15.31
2023-12-12T11:42:27.956Z,15.31
2023-12-12T11:45:00.206Z,15.10
2023-12-12T11:47:36.245Z,15.21
2023-12-12T11:50:16.517Z,15.39
2023-12-12T11:52:49.679Z,15.24
2023-12-12T11:55:30.088Z,15.53
2023-12-12T11:58:08.518Z,15.36
2023-12-12T12:00:45.121Z,15.31
2023-12-12T12:03:23.108Z,15.68
2023-12-12T12:05:55.645Z,15.74
2023-12-12T12:08:28.404Z,15.67
2023-12-12T12:11:00.807Z,15.75
2023-12-12T12:13:44.323Z,15.82
2023-12-12T12:16:16.908Z,15.85
2023-12-12T12:18:50.177Z,15.88
2023-12-12T12:21:26.807Z,15.71
2023-12-12T12:23:59.444Z,15.74
2023-12-12T12:26:35.939Z,15.76
2023-12-12T12:29:11.801Z,15.76
2023-12-12T12:31:45.480Z,15.89
2023-12-12T12:34:23.231Z,15.75
2023-12-12T12:36:59.968Z,15.79
2023-12-12T12:39:45.857Z,15.87
2023-12-12T12:42:18.579Z,15.79
2023-12-12T12:44:55.217Z,15.65
2023-12-12T12:47:28.120Z,15.62
2023-12-12T12:50:00.915Z,15.74
2023-12-12T12:52:34.035Z,15.42
2023-12-12T12:55:07.409Z,15.54
2023-12-12T12:57:41.049Z,15.66
2023-12-12T13:00:14.380Z,15.65
2023-12-12T13:02:47.042Z,15.41
2023-12-12T13:05:23.122Z,15.54
2023-12-12T13:07:55.829Z,15.44
2023-12-12T13:10:39.572Z,15.50
2023-12-12T13:13:21.642Z,15.05
2023-12-12T13:15:54.246Z,14.81
2023-12-12T13:18:27.100Z,14.54
2023-12-12T13:20:59.120Z,14.50
2023-12-12T13:23:32.047Z,14.37
2023-12-12T13:26:06.403Z,14.24
2023-12-12T13:28:40.528Z,14.17
2023-12-12T13:31:13.749Z,14.17
2023-12-12T13:33:46.952Z,14.12
2023-12-12T13:36:20.520Z,13.90
2023-12-12T13:38:55.826Z,13.96
2023-12-12T13:41:27.858Z,13.80
2023-12-12T13:44:00.644Z,13.78
2023-12-12T13:46:33.090Z,13.77
2023-12-12T13:49:06.474Z,13.63
2023-12-12T13:51:44.432Z,13.55
2023-12-12T13:54:21.920Z,13.57
2023-12-12T13:56:54.701Z,13.60
2023-12-12T13:59:27.120Z,13.61
2023-12-12T14:01:59.961Z,13.52
2023-12-12T14:04:32.702Z,13.79
2023-12-12T14:07:05.617Z,13.63
2023-12-12T14:09:37.731Z,13.63
2023-12-12T14:12:12.159Z,13.70
2023-12-12T14:14:44.319Z,13.81
2023-12-12T14:17:17.198Z,13.68
2023-12-12T14:19:49.844Z,13.83
2023-12-12T14:22:23.418Z,13.77
2023-12-12T14:24:55.406Z,13.57
2023-12-12T14:27:28.320Z,13.73
2023-12-12T14:30:00.899Z,13.76
2023-12-12T14:32:34.030Z,13.66
2023-12-12T14:35:08.357Z,13.78
2023-12-12T14:37:42.102Z,13.91
2023-12-12T14:40:15.825Z,13.99
2023-12-12T14:42:51.526Z,13.75
2023-12-12T14:45:24.091Z,14.07
2023-12-12T14:48:00.507Z,13.99
2023-12-12T14:50:32.598Z,13.88
2023-12-12T14:53:11.140Z,13.77
2023-12-12T14:55:43.537Z,14.07
2023-12-12T14:58:16.996Z,14.03
2023-12-12T15:00:50.011Z,14.08
2023-12-12T15:03:24.687Z,14.22
2023-12-12T15:05:57.327Z,14.44
2023-12-12T15:08:30.378Z,14.34
2023-12-12T15:11:02.371Z,14.37
2023-12-12T15:13:35.145Z,14.53
2023-12-12T15:16:10.537Z,14.30
2023-12-12T15:18:43.732Z,14.43
2023-12-12T15:21:16.111Z,14.45
2023-12-12T15:23:48.874Z,14.53
2023-12-12T15:26:21.484Z,14.62
2023-12-12T15:28:57.151Z,14.49
2023-12-12T15:31:32.475Z,14.39
2023-12-12T15:34:04.786Z,14.45
2023-12-12T15:36:38.181Z,14.26
2023-12-12T15:39:10.190Z,14.45
2023-12-12T15:41:43.002Z,14.51
2023-12-12T15:44:15.574Z,14.66
2023-12-12T15:46:48.649Z,14.77
2023-12-12T15:49:20.717Z,14.31
2023-12-12T15:51:53.548Z,14.63
2023-12-12T15:54:26.567Z,14.58
2023-12-12T15:56:59.372Z,14.54
2023-12-12T15:59:35.867Z,14.42
2023-12-12T16:02:09.181Z,14.68
2023-12-12T16:04:43.187Z,14.71
2023-12-12T16:07:16.130Z,14.53
2023-12-12T16:09:48.612Z,14.80
2023-12-12T16:12:24.924Z,14.83
2023-12-12T16:14:57.308Z,14.76
2023-12-12T16:17:30.431Z,14.77
2023-12-12T16:20:06.230Z,14.43
2023-12-12T16:22:39.643Z,14.70
2023-12-12T16:25:12.670Z,14.46
2023-12-12T16:27:50.765Z,14.68
2023-12-12T16:30:26.934Z,14.72
2023-12-12T16:33:01.573Z,14.52
2023-12-12T16:35:34.005Z,14.57
2023-12-12T16:38:06.591Z,14.54
2023-12-12T16:40:41.128Z,14.57
2023-12-12T16:43:17.666Z,14.41
2023-12-12T16:45:50.086Z,14.25
2023-12-12T16:48:22.306Z,13.95
2023-12-12T16:50:56.386Z,14.24
2023-12-12T16:53:29.461Z,14.25
2023-12-12T16:56:02.013Z,14.05
2023-12-12T16:58:38.053Z,14.34
2023-12-12T17:01:11.481Z,14.22
2023-12-12T17:03:44.929Z,14.24
2023-12-12T17:06:17.602Z,14.08
2023-12-12T17:08:52.458Z,14.12
2023-12-12T17:11:25.506Z,14.31
2023-12-12T17:13:58.374Z,14.07
2023-12-12T17:16:33.220Z,14.33
2023-12-12T17:19:06.562Z,14.33
2023-12-12T17:21:38.774Z,14.35
2023-12-12T17:27:08.199Z,14.20
2023-12-12T17:29:41.290Z,14.34
2023-12-12T17:32:14.535Z,14.32
2023-12-12T17:34:50.666Z,14.37
2023-12-12T17:37:24.441Z,14.34
2023-12-12T17:39:57.598Z,14.41
2023-12-12T17:42:30.758Z,14.36
2023-12-12T17:45:03.494Z,14.34
2023-12-12T17:47:38.959Z,14.13
2023-12-12T17:50:15.799Z,14.27
2023-12-12T17:52:47.971Z,14.18
2023-12-12T17:55:20.780Z,14.04
2023-12-12T17:57:52.770Z,14.06
2023-12-12T18:00:25.101Z,14.32
2023-12-12T18:02:57.471Z,14.34
2023-12-12T18:05:34.884Z,14.20
2023-12-12T18:08:06.918Z,14.15
2023-12-12T18:10:39.366Z,13.98
2023-12-12T18:13:11.401Z,14.18
2023-12-12T18:15:44.003Z,14.12
2023-12-12T18:18:16.620Z,14.17
2023-12-12T18:20:51.991Z,14.17
2023-12-12T18:23:25.799Z,14.08
2023-12-12T18:25:59.252Z,13.90
2023-12-12T18:28:31.719Z,14.15
2023-12-12T18:31:05.773Z,14.08
2023-12-12T18:33:37.973Z,14.02
2023-12-12T18:36:11.861Z,14.04
2023-12-12T18:38:43.888Z,13.81
2023-12-12T18:41:18.682Z,14.02
2023-12-12T18:43:50.799Z,13.84
2023-12-12T18:46:23.521Z,13.83
2023-12-12T18:48:56.434Z,13.86
2023-12-12T18:51:29.090Z,13.76
2023-12-12T18:54:01.132Z,13.79
2023-12-12T18:56:34.514Z,13.87
2023-12-12T18:59:06.656Z,13.86
2023-12-12T19:01:39.395Z,13.81
2023-12-12T19:04:11.489Z,13.74
2023-12-12T19:06:44.312Z,13.50
2023-12-12T19:09:16.482Z,13.50
2023-12-12T19:11:49.204Z,13.52
2023-12-12T19:14:21.707Z,13.61
2023-12-12T19:16:54.507Z,13.46
2023-12-12T19:19:26.605Z,13.54
2023-12-12T19:21:59.292Z,13.49
2023-12-12T19:24:31.284Z,13.65
2023-12-12T19:27:04.522Z,13.87
2023-12-12T19:29:37.996Z,13.73
2023-12-12T19:32:11.001Z,13.85
2023-12-12T19:34:42.980Z,13.64
2023-12-12T19:37:16.161Z,13.81
2023-12-12T19:39:48.491Z,13.83
2023-12-12T19:42:21.501Z,13.83
2023-12-12T19:44:54.004Z,13.83
2023-12-12T19:47:27.349Z,13.64
2023-12-12T19:50:02.267Z,13.75
2023-12-12T19:52:37.394Z,13.55
2023-12-12T19:55:16.119Z,13.66
2023-12-12T19:57:50.782Z,13.44
2023-12-12T20:00:24.874Z,13.53
2023-12-12T20:02:57.860Z,13.22
2023-12-12T20:05:32.580Z,13.33
2023-12-12T20:08:05.753Z,13.51
2023-12-12T20:10:39.957Z,13.38
2023-12-12T20:13:13.520Z,13.33
2023-12-12T20:15:46.767Z,13.24
2023-12-12T20:18:22.608Z,13.40
2023-12-12T20:20:55.054Z,13.37
2023-12-12T20:23:27.764Z,13.13
2023-12-12T20:26:02.063Z,13.36
2023-12-12T20:28:34.260Z,13.27
2023-12-12T20:31:06.378Z,13.14
2023-12-12T20:33:39.307Z,13.05
2023-12-12T20:36:14.359Z,13.24
2023-12-12T20:38:47.521Z,13.24
2023-12-12T20:41:19.607Z,12.98
2023-12-12T20:43:52.312Z,13.19
2023-12-12T20:46:24.756Z,13.24
2023-12-12T20:48:57.929Z,13.06
2023-12-12T20:51:32.564Z,13.24
2023-12-12T20:54:07.888Z,13.08
2023-12-12T20:56:42.906Z,13.23
2023-12-12T20:59:15.520Z,12.92
2023-12-12T21:01:48.875Z,12.92
2023-12-12T21:04:21.756Z,12.90
2023-12-12T21:06:54.236Z,12.86
2023-12-12T21:09:27.162Z,12.46
2023-12-12T21:11:59.616Z,12.45
2023-12-12T21:14:32.389Z,12.08
2023-12-12T21:17:05.049Z,11.83
2023-12-12T21:19:38.252Z,11.35
2023-12-12T21:22:10.361Z,10.98
2023-12-12T21:24:44.151Z,10.63
2023-12-12T21:27:16.091Z,10.89
2023-12-12T21:29:49.097Z,10.97
2023-12-12T21:32:21.887Z,10.98
2023-12-12T21:34:54.868Z,10.64
2023-12-12T21:37:26.901Z,10.57
2023-12-12T21:40:02.987Z,10.54
2023-12-12T21:42:35.061Z,10.45
2023-12-12T21:45:08.004Z,10.45
2023-12-12T21:47:39.975Z,10.32
2023-12-12T21:50:12.802Z,10.22
2023-12-12T21:52:45.428Z,10.22
2023-12-12T21:55:18.225Z,10.24
2023-12-12T21:57:50.643Z,10.26
2023-12-12T22:00:23.345Z,10.11
2023-12-12T22:02:55.294Z,9.88
2023-12-12T22:05:28.338Z,10.05
2023-12-12T22:08:00.311Z,10.01
2023-12-12T22:10:32.624Z,9.86
2023-12-12T22:13:04.627Z,9.89
2023-12-12T22:15:37.930Z,10.09
2023-12-12T22:18:09.964Z,10.02
2023-12-12T22:20:43.189Z,10.11
2023-12-12T22:23:15.481Z,10.21
2023-12-12T22:25:48.476Z,10.37
2023-12-12T22:28:22.021Z,10.43
2023-12-12T22:30:54.881Z,10.37
2023-12-12T22:33:26.941Z,10.50
2023-12-12T22:36:00.132Z,10.33
2023-12-12T22:38:32.481Z,10.62
2023-12-12T22:41:05.813Z,10.44
2023-12-12T22:43:41.479Z,10.49
2023-12-12T22:46:14.209Z,10.47
2023-12-12T22:48:47.283Z,10.49
2023-12-12T22:51:20.447Z,10.64
2023-12-12T22:53:52.524Z,10.39
2023-12-12T22:56:25.341Z,10.44
2023-12-12T22:59:00.130Z,10.53
2023-12-12T23:01:33.260Z,10.48
2023-12-12T23:04:05.555Z,10.29
2023-12-12T23:06:38.333Z,10.37
2023-12-12T23:09:11.646Z,10.51
2023-12-12T23:11:47.182Z,10.57
2023-12-12T23:14:21.692Z,10.53
2023-12-12T23:16:54.410Z,10.48
2023-12-12T23:19:26.467Z,10.55
2023-12-12T23:21:59.124Z,10.37
2023-12-12T23:24:32.316Z,10.32
2023-12-12T23:27:05.146Z,10.30
2023-12-12T23:29:37.103Z,10.28
2023-12-12T23:32:09.815Z,10.38
2023-12-12T23:34:47.648Z,10.39
2023-12-12T23:37:21.267Z,10.64
2023-12-12T23:39:54.042Z,10.67
2023-12-12T23:42:26.757Z,10.95
2023-12-12T23:45:04.443Z,11.03
2023-12-12T23:47:37.406Z,10.91
2023-12-12T23:50:10.090Z,11.00
2023-12-12T23:52:42.795Z,11.01
2023-12-12T23:55:15.993Z,11.03
2023-12-12T23:57:48.631Z,11.00
